Friday, January 19, 2018, 4:00 AM GMT
Back to Local

CWJB, Ste Foy CS , Que.

Location: , , Canada Lat: 47.3
Local Time: 4:00 AM GMT ( 4:00 GMT) Lon: -71.267
Time Zone: GMT Elev: 298 ft

Show me the last for .
Show Coded

Time T Td Feel RH Dir Speed Gust Alt SLP Vis Weather Sky Remarks
2018-01-19 03:00 18 - 13 0 210° 3 - - - 0 None
2018-01-19 02:00 19 - 13 0 220° 5 - - - 0 None
2018-01-19 01:00 22 - 16 0 220° 5 - - - 0 None
2018-01-19 00:00 23 - 15 0 220° 7 - - - 0 None
2018-01-18 23:00 24 - 17 0 220° 6 - - - 0 None
2018-01-18 22:00 24 - 16 0 230° 7 - - - 0 None
2018-01-18 21:00 24 - 17 0 220° 6 - - - 0 None
2018-01-18 20:00 24 - 10 0 230° 9 18 - - 0 None
2018-01-18 19:00 24 - 15 0 220° 8 - - - 0 None
2018-01-18 18:00 24 - 10 0 220° 9 17 - - 0 None
2018-01-18 17:00 23 - 13 0 220° 9 - - - 0 None
2018-01-18 16:00 22 - 8 0 220° 12 20 - - 0 Peak wind: 20 mph (18 kts) from 220° at 44 min
1-hr Precip Total: 0.04"
2018-01-18 15:00 22 - 6 0 220° 13 21 - - 0 Peak wind: 20 mph (18 kts) from 210° at 54 min
2018-01-18 14:00 21 - 5 0 220° 10 21 - - 0 Peak wind: 20 mph (18 kts) from 220° at 54 min
2018-01-18 13:00 20 - 9 0 220° 10 - - - 0 None
2018-01-18 12:00 20 - 9 0 220° 9 - - - 0 None
2018-01-18 11:00 20 - 5 0 230° 10 18 - - 0 Peak wind: 19 mph (17 kts) from 230° at 26 min
2018-01-18 10:00 20 - 8 0 220° 10 - - - 0 Peak wind: 19 mph (17 kts) from 190° at 38 min
2018-01-18 09:00 20 - 5 0 220° 10 18 - - 0 None
2018-01-18 08:00 20 - 9 0 220° 9 - - - 0 None
2018-01-18 07:00 19 - 8 0 220° 9 - - - 0 None
2018-01-18 06:00 20 - 10 0 220° 9 - - - 0 None
2018-01-18 05:00 18 - 8 0 220° 8 - - - 0 None

Support USWX by starting your Amazon purchase here.